Lafayette, CO (80026)

6:32 PM MDT on August 03, 2015 (GMT -0600)
Old Town | | Change Station
CLOSE
Current Station
Personal Weather Station
Location: Lafayette, CO
Elevation: 5246 ft
Nearby Weather Stations

Elev 5246 ft 39.99 °N, 105.09 °W | Updated 19 seconds ago

Scattered Clouds
Scattered Clouds
77.9 °F
Feels Like 78 °F
N
1.3
Wind Variable Wind from South
Gusts 2.5 mph

Today
High -- | Low -- °F
--% Chance of Precip.
Yesterday
High -- | Low -- °F
Precip. -- in
6:00 AM 8:12 PM
Waning Gibbous, 83% visible
Pressure 30.04 in
Visibility 10.0 miles
Clouds Scattered Clouds 12000 ft
Heat Index 78 °F
Dew Point 48 °F
Humidity 35%
Rainfall 0.00 in
Snow Depth Not available.
UV 1.0 out of 12
Pollen 7.70 out of 12
Air Quality Not available.
Flu Activity Not available.
METAR KEIK 040015Z AUTO 19007G15KT 10SM VCTS SCT120 27/07 A3004 RMK AO2 T02670074

More Conditions Fewer Conditions

Pressure 30.04 in
Visibility 10.0 miles
Clouds Scattered Clouds 12000 ft
Heat Index 78 °F
Dew Point 48 °F
Humidity 35%
Rainfall 0.00 in
Snow Depth Not available.
UV 1.0 out of 12
Pollen 7.70 out of 12
Air Quality Not available.
Flu Activity Not available.
METAR KEIK 040015Z AUTO 19007G15KT 10SM VCTS SCT120 27/07 A3004 RMK AO2 T02670074

More Conditions Fewer Conditions

10-Day Weather Forecast

×

Almanac

Astronomy

Aug. 03, 2015 Rise Set
Actual Time
Civil Twilight
Nautical Twilight
Astronomical Twilight
Moon
Length of Visible Light
Length of Day
Tomorrow will be .
, % of the Moon is Illuminated

Today's Extremes

State Highs State Lows

Community

WunderPhotos

Upload Photos

1,843,794 photos uploaded!

WunderBlogs® & News

Nearby

Air Quality

  Air Quality AQ Index Pollutant
Not available.

Snow Depth

Station Depth Elevation

Earthquake Activity

City Distance Mag. Time & Date
Minimum magnitude displayed is 2.5.

Coastal Water Temperatures

Place Temperature

Stations

Nearby Weather Stations

Station Location Temp. Windchill Dew Point Humidity Wind Precip. Elev Updated Type